createdAt,value
2017-11-23T07:23:38.683Z,72.80
2017-11-23T07:24:38.624Z,73.47
2017-11-23T07:25:38.601Z,73.18
2017-11-23T07:26:38.587Z,73.28
2017-11-23T07:27:38.601Z,72.80
2017-11-23T07:28:38.550Z,73.60
2017-11-23T07:29:38.530Z,72.89
2017-11-23T07:30:38.511Z,73.22
2017-11-23T07:31:38.487Z,73.03
2017-11-23T07:32:38.513Z,72.93
2017-11-23T07:33:38.456Z,72.74
2017-11-23T07:34:38.435Z,72.45
2017-11-23T07:35:38.415Z,72.93
2017-11-23T07:36:38.397Z,73.12
2017-11-23T07:37:38.421Z,72.74
2017-11-23T07:38:38.362Z,72.83
2017-11-23T07:39:38.340Z,72.45
2017-11-23T07:40:38.331Z,72.64
2017-11-23T07:41:38.305Z,72.36
2017-11-23T07:42:38.316Z,72.55
2017-11-23T07:43:38.266Z,72.36
2017-11-23T07:44:38.246Z,72.17
2017-11-23T07:45:38.259Z,72.36
2017-11-23T07:46:38.211Z,72.83
2017-11-23T07:47:38.191Z,72.83
2017-11-23T07:48:38.173Z,72.55
2017-11-23T07:49:38.205Z,72.74
2017-11-23T07:50:38.137Z,72.26
2017-11-23T07:51:38.236Z,72.74
2017-11-23T07:52:38.099Z,72.45
2017-11-23T07:53:38.101Z,72.36
2017-11-23T07:54:38.101Z,72.36
2017-11-23T07:55:38.063Z,72.64
2017-11-23T07:56:38.024Z,72.17
2017-11-23T07:57:38.002Z,72.07
2017-11-23T07:58:37.987Z,72.36
2017-11-23T07:59:38.007Z,72.83
2017-11-23T08:00:37.956Z,72.55
2017-11-23T08:01:37.970Z,72.83
2017-11-23T08:02:37.917Z,72.36
2017-11-23T08:03:37.895Z,72.07
2017-11-23T08:04:37.878Z,72.36
2017-11-23T08:05:37.892Z,72.36
2017-11-23T08:06:37.842Z,72.07
2017-11-23T08:07:37.837Z,72.30
2017-11-23T08:08:37.805Z,71.53
2017-11-23T08:09:37.787Z,71.82
2017-11-23T08:10:37.803Z,71.34
2017-11-23T08:11:37.752Z,71.82
2017-11-23T08:12:37.731Z,71.63
2017-11-23T08:13:37.711Z,71.25
2017-11-23T08:14:37.732Z,71.15
2017-11-23T08:15:37.710Z,70.58
2017-11-23T08:16:37.658Z,70.81
2017-11-23T08:17:37.646Z,68.26
2017-11-23T08:18:37.625Z,65.90
2017-11-23T08:19:37.609Z,65.55
2017-11-23T08:20:37.624Z,63.06
2017-11-23T08:21:37.570Z,63.16
2017-11-23T08:22:37.558Z,63.26
2017-11-23T08:23:37.537Z,63.73
2017-11-23T08:24:37.517Z,62.62
2017-11-23T08:25:37.542Z,61.40
2017-11-23T08:26:37.490Z,59.97
2017-11-23T08:27:37.470Z,59.77
2017-11-23T08:28:37.449Z,59.84
2017-11-23T08:29:37.432Z,61.57
2017-11-23T08:30:37.464Z,61.85
2017-11-23T08:31:37.402Z,63.16
2017-11-23T08:32:37.384Z,63.35
2017-11-23T08:33:37.372Z,64.47
2017-11-23T08:34:37.353Z,65.23
2017-11-23T08:35:37.372Z,65.61
2017-11-23T08:36:37.353Z,65.42
2017-11-23T08:37:37.305Z,64.85
2017-11-23T08:38:37.295Z,65.14
2017-11-23T08:39:37.274Z,65.04
2017-11-23T08:40:37.257Z,65.52
2017-11-23T08:41:37.273Z,64.22
2017-11-23T08:42:37.259Z,63.16
2017-11-23T08:43:37.208Z,61.50
2017-11-23T08:44:37.191Z,58.69
2017-11-23T08:45:37.175Z,57.92
2017-11-23T08:46:37.203Z,59.30
2017-11-23T08:47:37.146Z,61.34
2017-11-23T08:48:37.127Z,62.77
2017-11-23T08:49:37.114Z,63.64
2017-11-23T08:50:37.099Z,64.37
2017-11-23T08:51:37.123Z,64.37
2017-11-23T08:52:37.114Z,65.04
2017-11-23T08:53:37.049Z,65.33
2017-11-23T08:54:37.032Z,65.74
2017-11-23T08:55:37.018Z,62.46
2017-11-23T08:56:37.004Z,59.61
2017-11-23T08:57:37.018Z,57.72
2017-11-23T08:58:36.973Z,56.12
2017-11-23T08:59:36.986Z,55.64
2017-11-23T09:00:36.955Z,56.86
2017-11-23T09:01:36.922Z,56.41
2017-11-23T09:02:36.906Z,54.97
2017-11-23T09:03:36.927Z,54.97
2017-11-23T09:04:36.876Z,54.21
2017-11-23T09:05:36.896Z,55.35
2017-11-23T09:06:36.847Z,54.33
2017-11-23T09:07:36.832Z,53.97
2017-11-23T09:08:36.821Z,52.43
2017-11-23T09:09:36.801Z,52.53
2017-11-23T09:10:36.820Z,53.53
2017-11-23T09:11:36.772Z,54.85
2017-11-23T09:12:36.801Z,57.21
2017-11-23T09:13:36.741Z,58.62
2017-11-23T09:14:36.729Z,58.17
2017-11-23T09:15:36.716Z,58.91
2017-11-23T09:16:36.704Z,59.48
2017-11-23T09:17:36.719Z,60.93
2017-11-23T09:18:36.672Z,61.57
2017-11-23T09:19:36.657Z,61.94
2017-11-23T09:20:36.644Z,61.66
2017-11-23T09:21:36.626Z,62.33
2017-11-23T09:22:36.657Z,62.04
2017-11-23T09:23:36.611Z,63.16
2017-11-23T09:24:36.586Z,63.26
2017-11-23T09:25:36.568Z,63.26
2017-11-23T09:26:36.554Z,63.73
2017-11-23T09:27:36.578Z,63.45
2017-11-23T09:28:36.529Z,63.64
2017-11-23T09:29:36.565Z,64.12
2017-11-23T09:30:36.500Z,63.64
2017-11-23T09:31:36.480Z,64.12
2017-11-23T09:32:36.464Z,64.31
2017-11-23T09:33:36.452Z,64.31
2017-11-23T09:34:36.480Z,64.85
2017-11-23T09:35:36.419Z,64.98
2017-11-23T09:36:36.405Z,65.17
2017-11-23T09:37:36.389Z,65.65
2017-11-23T09:38:36.373Z,65.61
2017-11-23T09:39:36.406Z,66.38
2017-11-23T09:40:36.340Z,65.61
2017-11-23T09:41:36.330Z,65.71
2017-11-23T09:42:36.309Z,66.00
2017-11-23T09:43:36.292Z,65.81
2017-11-23T09:44:36.322Z,65.71
2017-11-23T09:45:36.261Z,66.38
2017-11-23T09:46:36.245Z,66.96
2017-11-23T09:47:36.231Z,66.47
2017-11-23T09:48:36.213Z,66.67
2017-11-23T09:49:36.246Z,66.38
2017-11-23T09:50:36.182Z,66.96
2017-11-23T09:51:36.167Z,67.05
2017-11-23T09:52:36.149Z,67.34
2017-11-23T09:53:36.129Z,67.05
2017-11-23T09:54:36.160Z,67.34
2017-11-23T09:55:36.100Z,67.24
2017-11-23T09:56:36.084Z,67.14
2017-11-23T09:57:36.071Z,67.34
2017-11-23T09:58:36.053Z,67.53
2017-11-23T09:59:36.066Z,67.63
2017-11-23T10:00:36.026Z,67.63
2017-11-23T10:01:36.006Z,68.01
2017-11-23T10:02:35.991Z,67.91
2017-11-23T10:03:36.009Z,68.39
2017-11-23T10:04:35.957Z,68.49
2017-11-23T10:05:35.938Z,68.29
2017-11-23T10:06:35.918Z,68.01
2017-11-23T10:07:35.937Z,67.91
2017-11-23T10:08:35.889Z,68.29
2017-11-23T10:09:35.870Z,68.29
2017-11-23T10:10:35.886Z,67.91
2017-11-23T10:11:35.845Z,68.87
2017-11-23T10:12:35.820Z,68.68
2017-11-23T10:13:35.805Z,68.29
2017-11-23T10:14:35.786Z,68.77
2017-11-23T10:15:35.806Z,68.68
2017-11-23T10:16:35.755Z,68.87
2017-11-23T10:17:35.746Z,69.15
2017-11-23T10:18:35.722Z,68.77
2017-11-23T10:19:35.705Z,69.25
2017-11-23T10:20:35.735Z,69.64
2017-11-23T10:21:35.673Z,69.64
2017-11-23T10:22:35.656Z,69.35
2017-11-23T10:23:35.654Z,69.35
2017-11-23T10:24:35.622Z,69.60
2017-11-23T10:25:35.681Z,69.79
2017-11-23T10:26:35.590Z,69.89
2017-11-23T10:27:35.575Z,70.07
2017-11-23T10:28:35.555Z,70.17
2017-11-23T10:29:35.540Z,70.27
2017-11-23T10:30:35.556Z,69.79
2017-11-23T10:31:35.506Z,69.79
2017-11-23T10:32:35.529Z,69.98
2017-11-23T10:33:35.472Z,70.27
2017-11-23T10:34:35.455Z,70.07
2017-11-23T10:35:35.460Z,70.27
2017-11-23T10:36:35.460Z,69.98
2017-11-23T10:37:35.437Z,70.17
2017-11-23T10:38:35.388Z,70.07
2017-11-23T10:39:35.377Z,69.98
2017-11-23T10:40:35.359Z,70.30
2017-11-23T10:41:35.342Z,70.27
2017-11-23T10:42:35.357Z,70.94
2017-11-23T10:43:35.307Z,70.75
2017-11-23T10:44:35.289Z,70.56
2017-11-23T10:45:35.322Z,70.94
2017-11-23T10:46:35.256Z,70.94
2017-11-23T10:47:35.239Z,70.94
2017-11-23T10:48:35.222Z,71.32
2017-11-23T10:49:35.204Z,71.80
2017-11-23T10:50:35.245Z,71.83
2017-11-23T10:51:35.172Z,71.45
2017-11-23T10:52:35.159Z,71.45
2017-11-23T10:53:35.137Z,71.16
2017-11-23T10:54:35.122Z,71.45
2017-11-23T10:55:35.145Z,72.02
2017-11-23T10:56:35.092Z,71.83
2017-11-23T10:57:35.071Z,72.22
2017-11-23T10:58:35.099Z,71.93
2017-11-23T10:59:35.041Z,71.36
2017-11-23T11:00:35.027Z,71.26
2017-11-23T11:01:35.005Z,70.50
2017-11-23T11:02:34.990Z,70.59
2017-11-23T11:03:35.008Z,71.07
2017-11-23T11:04:34.957Z,71.87
2017-11-23T11:05:34.941Z,71.68
2017-11-23T11:06:34.924Z,72.34
2017-11-23T11:07:34.957Z,72.79
2017-11-23T11:08:34.893Z,72.31
2017-11-23T11:09:34.880Z,72.79
2017-11-23T11:10:34.867Z,73.36
2017-11-23T11:11:34.842Z,74.70
2017-11-23T11:12:34.863Z,76.14
2017-11-23T11:13:34.811Z,77.57
2017-11-23T11:14:34.795Z,79.58
2017-11-23T11:15:34.777Z,79.68
2017-11-23T11:16:34.808Z,82.51
2017-11-23T11:17:34.746Z,83.27
2017-11-23T11:18:34.727Z,84.80
2017-11-23T11:19:34.713Z,86.04
2017-11-23T11:20:34.696Z,86.71
2017-11-23T11:21:34.705Z,86.57
2017-11-23T11:22:34.664Z,87.53
2017-11-23T11:23:34.650Z,87.72
2017-11-23T11:24:34.681Z,88.29
2017-11-23T11:25:34.615Z,88.58
2017-11-23T11:26:34.600Z,88.48
2017-11-23T11:27:34.591Z,89.06
2017-11-23T11:28:34.566Z,88.77
2017-11-23T11:29:34.586Z,90.11
2017-11-23T11:30:34.532Z,90.39
2017-11-23T11:31:34.516Z,90.06
2017-11-23T11:32:34.510Z,90.92
2017-11-23T11:33:34.482Z,90.73
2017-11-23T11:34:34.511Z,90.83
2017-11-23T11:35:34.449Z,91.40
2017-11-23T11:36:34.432Z,91.59
2017-11-23T11:37:34.421Z,92.36
2017-11-23T11:38:34.400Z,92.64
2017-11-23T11:39:34.417Z,91.88
2017-11-23T11:40:34.370Z,91.88
2017-11-23T11:41:34.362Z,92.45
2017-11-23T11:42:34.330Z,91.59
2017-11-23T11:43:34.322Z,92.07
2017-11-23T11:44:34.331Z,92.45
2017-11-23T11:45:34.280Z,92.16
2017-11-23T11:46:34.266Z,91.88
2017-11-23T11:47:34.249Z,92.45
2017-11-23T11:48:34.241Z,91.97
2017-11-23T11:49:34.248Z,92.45
2017-11-23T11:50:34.199Z,92.74
2017-11-23T11:51:34.211Z,92.79
2017-11-23T11:52:34.161Z,92.50
2017-11-23T11:53:34.145Z,92.40
2017-11-23T11:54:34.126Z,91.97
2017-11-23T11:55:34.110Z,92.45
2017-11-23T11:56:34.141Z,92.16
2017-11-23T11:57:34.077Z,91.97
2017-11-23T11:58:34.065Z,92.55
2017-11-23T11:59:34.048Z,92.45
2017-11-23T12:00:34.026Z,92.16
2017-11-23T12:01:34.042Z,92.36
2017-11-23T12:02:33.990Z,92.26
2017-11-23T12:03:33.973Z,91.78
2017-11-23T12:04:33.962Z,92.26
2017-11-23T12:05:33.946Z,92.02
2017-11-23T12:06:33.964Z,92.26
2017-11-23T12:07:33.908Z,91.93
2017-11-23T12:08:33.891Z,91.93
2017-11-23T12:09:33.872Z,91.49
2017-11-23T12:10:33.891Z,90.63
2017-11-23T12:11:33.839Z,90.34
2017-11-23T12:12:33.826Z,90.44
2017-11-23T12:13:33.805Z,89.48
2017-11-23T12:14:33.784Z,89.34
2017-11-23T12:15:33.806Z,89.15
2017-11-23T12:16:33.756Z,89.24
2017-11-23T12:17:33.740Z,89.43
2017-11-23T12:18:33.731Z,88.48
2017-11-23T12:19:33.703Z,88.00
2017-11-23T12:20:33.724Z,87.23
2017-11-23T12:21:33.705Z,87.90
2017-11-23T12:22:33.654Z,87.62
2017-11-23T12:23:33.638Z,87.43
2017-11-23T12:24:33.626Z,87.14
2017-11-23T12:25:33.608Z,86.90
2017-11-23T12:26:33.629Z,86.41
2017-11-23T12:27:33.610Z,86.08
2017-11-23T12:28:33.559Z,87.04
2017-11-23T12:29:33.555Z,86.18
2017-11-23T12:30:33.529Z,86.94
2017-11-23T12:31:33.512Z,86.94
2017-11-23T12:32:33.528Z,86.47
2017-11-23T12:33:33.480Z,86.85
2017-11-23T12:34:33.466Z,86.90
2017-11-23T12:35:33.479Z,87.00
2017-11-23T12:36:33.438Z,87.19
2017-11-23T12:37:33.413Z,87.29
2017-11-23T12:38:33.422Z,87.66
2017-11-23T12:39:33.381Z,87.95
2017-11-23T12:40:33.366Z,87.66
2017-11-23T12:41:33.383Z,87.66
2017-11-23T12:42:33.431Z,87.38
2017-11-23T12:43:33.352Z,87.23
2017-11-23T12:44:33.301Z,87.14
2017-11-23T12:45:33.359Z,87.33
2017-11-23T12:46:33.302Z,87.14
2017-11-23T12:47:33.303Z,87.43
2017-11-23T12:48:33.239Z,86.76
2017-11-23T12:49:33.222Z,87.14
2017-11-23T12:50:33.207Z,87.04
2017-11-23T12:51:33.189Z,86.85
2017-11-23T12:52:33.205Z,86.18
2017-11-23T12:53:33.191Z,86.94
2017-11-23T12:54:33.138Z,86.37
2017-11-23T12:55:33.120Z,85.61
2017-11-23T12:56:33.111Z,86.47
2017-11-23T12:57:33.093Z,86.85
2017-11-23T12:58:33.107Z,86.47
2017-11-23T12:59:33.061Z,86.57
2017-11-23T13:00:33.047Z,87.04
2017-11-23T13:01:33.025Z,86.47
2017-11-23T13:02:33.058Z,86.94
2017-11-23T13:03:32.992Z,87.14
2017-11-23T13:04:32.991Z,86.85
2017-11-23T13:05:32.960Z,86.57
2017-11-23T13:06:32.972Z,86.66
2017-11-23T13:07:32.964Z,86.85
2017-11-23T13:08:32.930Z,86.28
2017-11-23T13:09:32.897Z,87.14
2017-11-23T13:10:32.885Z,86.85
2017-11-23T13:11:32.905Z,86.57
2017-11-23T13:12:32.849Z,86.57
2017-11-23T13:13:32.830Z,86.57
2017-11-23T13:14:32.862Z,86.94
2017-11-23T13:15:32.800Z,86.47
2017-11-23T13:16:32.783Z,86.85
2017-11-23T13:17:32.767Z,87.18
2017-11-23T13:18:32.793Z,86.51
2017-11-23T13:19:32.735Z,86.32
2017-11-23T13:20:32.720Z,86.41
2017-11-23T13:21:32.736Z,86.32
2017-11-23T13:22:32.685Z,86.41
2017-11-23T13:23:32.678Z,86.41
2017-11-23T13:24:32.689Z,86.13
2017-11-23T13:25:32.636Z,86.13
2017-11-23T13:26:32.622Z,86.76
2017-11-23T13:27:32.604Z,86.32
2017-11-23T13:28:32.590Z,86.51
2017-11-23T13:29:32.607Z,86.32
2017-11-23T13:30:32.559Z,86.85
2017-11-23T13:31:32.539Z,87.14
2017-11-23T13:32:32.526Z,87.62
2017-11-23T13:33:32.541Z,87.43
2017-11-23T13:34:32.491Z,87.33
2017-11-23T13:35:32.511Z,87.81
2017-11-23T13:36:32.463Z,87.81
2017-11-23T13:37:32.444Z,87.43
2017-11-23T13:38:32.429Z,87.81
2017-11-23T13:39:32.412Z,87.90
2017-11-23T13:40:32.437Z,87.81
2017-11-23T13:41:32.380Z,87.90
2017-11-23T13:42:32.362Z,87.81
2017-11-23T13:43:32.346Z,87.33
2017-11-23T13:44:32.330Z,87.43
2017-11-23T13:45:32.363Z,87.33
2017-11-23T13:46:32.299Z,87.52
2017-11-23T13:47:32.280Z,87.43
2017-11-23T13:48:32.266Z,87.43
2017-11-23T13:49:32.247Z,87.71
2017-11-23T13:50:32.266Z,87.71
2017-11-23T13:51:32.215Z,87.43
2017-11-23T13:52:32.243Z,87.81
2017-11-23T13:53:32.183Z,87.81
2017-11-23T13:54:32.164Z,87.43
2017-11-23T13:55:32.151Z,87.81
2017-11-23T13:56:32.136Z,87.81
2017-11-23T13:57:32.164Z,87.90
2017-11-23T13:58:32.102Z,87.90
2017-11-23T13:59:32.106Z,87.81
2017-11-23T14:00:32.073Z,88.19
2017-11-23T14:01:32.074Z,88.09
2017-11-23T14:02:32.067Z,88.09
2017-11-23T14:03:32.020Z,88.00
2017-11-23T14:04:32.004Z,88.00
2017-11-23T14:05:31.987Z,87.71
2017-11-23T14:06:32.003Z,88.00
2017-11-23T14:07:31.956Z,88.09
2017-11-23T14:08:31.935Z,88.00
2017-11-23T14:09:31.922Z,87.71
2017-11-23T14:10:31.914Z,87.43
2017-11-23T14:11:31.928Z,87.14
2017-11-23T14:12:31.870Z,87.04
2017-11-23T14:13:31.860Z,86.66
2017-11-23T14:14:31.841Z,87.23
2017-11-23T14:15:31.871Z,87.23
2017-11-23T14:16:31.804Z,87.04
2017-11-23T14:17:31.787Z,87.33
2017-11-23T14:18:31.786Z,87.33
2017-11-23T14:19:31.756Z,87.62
2017-11-23T14:20:31.772Z,87.62
2017-11-23T14:21:31.722Z,87.81
2017-11-23T14:22:31.709Z,87.81
2017-11-23T14:23:31.732Z,87.81
2017-11-23T14:24:31.678Z,88.09
2017-11-23T14:25:31.661Z,88.19
2017-11-23T14:26:31.641Z,87.62
2017-11-23T14:27:31.624Z,87.62
2017-11-23T14:28:31.641Z,87.33
2017-11-23T14:29:41.469Z,87.62
2017-11-23T14:30:31.573Z,87.71
2017-11-23T14:31:31.557Z,87.62
2017-11-23T14:32:31.578Z,87.81
2017-11-23T14:33:31.527Z,87.81
2017-11-23T14:34:31.505Z,87.43
2017-11-23T14:35:31.526Z,87.23
2017-11-23T14:36:31.518Z,87.23
2017-11-23T14:37:31.455Z,87.14
2017-11-23T14:38:31.440Z,87.23
2017-11-23T14:39:31.421Z,87.52
2017-11-23T14:40:31.405Z,87.52
2017-11-23T14:41:31.422Z,87.33
2017-11-23T14:42:31.415Z,86.85
2017-11-23T14:43:31.356Z,87.04
2017-11-23T14:44:31.342Z,87.33
2017-11-23T14:45:31.322Z,87.14
2017-11-23T14:46:31.302Z,86.85
2017-11-23T14:47:31.334Z,86.76
2017-11-23T14:48:31.274Z,86.47
2017-11-23T14:49:31.263Z,86.47
2017-11-23T14:50:31.243Z,86.66
2017-11-23T14:51:31.224Z,86.57
2017-11-23T14:52:31.241Z,86.57
2017-11-23T14:53:31.194Z,86.76
2017-11-23T14:54:31.173Z,86.85
2017-11-23T14:55:31.199Z,86.76
2017-11-23T14:56:31.137Z,87.04
2017-11-23T14:57:31.119Z,86.85
2017-11-23T14:58:31.104Z,86.85
2017-11-23T14:59:31.087Z,86.57
2017-11-23T15:00:31.110Z,86.76
2017-11-23T15:01:31.057Z,87.14
2017-11-23T15:02:31.040Z,87.04
2017-11-23T15:03:31.020Z,86.94
2017-11-23T15:04:31.039Z,87.14
2017-11-23T15:05:30.993Z,86.94
2017-11-23T15:06:30.970Z,87.04
2017-11-23T15:07:30.955Z,87.04
2017-11-23T15:08:30.986Z,86.94
2017-11-23T15:09:30.921Z,87.04
2017-11-23T15:10:30.905Z,87.33
2017-11-23T15:11:30.890Z,87.33
2017-11-23T15:12:30.873Z,87.33
2017-11-23T15:13:30.898Z,86.94
2017-11-23T15:14:30.838Z,87.14
2017-11-23T15:15:30.822Z,87.43
2017-11-23T15:16:30.809Z,87.33
2017-11-23T15:17:30.790Z,87.33
2017-11-23T15:18:30.819Z,87.33
2017-11-23T15:19:30.756Z,87.43
2017-11-23T15:20:30.740Z,87.23
2017-11-23T15:21:30.720Z,87.90
2017-11-23T15:22:30.706Z,87.86
2017-11-23T15:23:30.724Z,87.71
2017-11-23T15:24:30.670Z,87.81
2017-11-23T15:25:30.693Z,88.00
2017-11-23T15:26:30.639Z,88.57
2017-11-23T15:27:30.660Z,88.48
2017-11-23T15:28:30.611Z,88.86
2017-11-23T15:29:30.587Z,89.24
2017-11-23T15:30:30.574Z,89.29
2017-11-23T15:31:30.555Z,89.53
2017-11-23T15:32:30.572Z,90.10
2017-11-23T15:33:30.520Z,90.44
2017-11-23T15:34:30.508Z,91.30
2017-11-23T15:35:30.492Z,92.35
2017-11-23T15:36:30.512Z,94.17
2017-11-23T15:37:30.455Z,95.22
2017-11-23T15:38:30.437Z,97.75
2017-11-23T15:39:30.452Z,96.80
2017-11-23T15:40:30.402Z,97.85
2017-11-23T15:41:30.385Z,98.42
2017-11-23T15:42:30.369Z,98.47
2017-11-23T15:43:30.354Z,99.99
2017-11-23T15:44:30.374Z,99.52
2017-11-23T15:45:30.319Z,99.99
2017-11-23T15:46:30.300Z,99.99
2017-11-23T15:47:30.297Z,98.99
2017-11-23T15:48:30.267Z,99.99
2017-11-23T15:49:30.282Z,99.99
2017-11-23T15:50:30.230Z,99.99
2017-11-23T15:51:30.214Z,99.99
2017-11-23T15:52:30.197Z,99.99
2017-11-23T15:53:30.178Z,99.99
2017-11-23T15:54:30.211Z,99.99
2017-11-23T15:55:30.145Z,99.99
2017-11-23T15:56:30.126Z,99.99
2017-11-23T15:57:30.111Z,99.99
2017-11-23T15:58:30.092Z,99.99
2017-11-23T15:59:30.113Z,99.99
2017-11-23T16:00:30.057Z,99.99
2017-11-23T16:01:30.037Z,99.99
2017-11-23T16:02:30.018Z,99.99
2017-11-23T16:03:30.037Z,99.99
2017-11-23T16:04:29.983Z,99.99
2017-11-23T16:05:30.001Z,99.99
2017-11-23T16:06:29.985Z,99.99
2017-11-23T16:07:29.931Z,99.99
2017-11-23T16:08:29.911Z,99.99
2017-11-23T16:09:29.926Z,99.99
2017-11-23T16:10:30.004Z,99.99
2017-11-23T16:11:29.867Z,99.99
2017-11-23T16:12:29.840Z,99.99
2017-11-23T16:13:29.829Z,99.99
2017-11-23T16:14:29.799Z,99.99
2017-11-23T16:15:29.825Z,99.99
2017-11-23T16:16:29.767Z,99.99
2017-11-23T16:17:29.745Z,99.99
2017-11-23T16:18:29.770Z,99.99
2017-11-23T16:19:29.716Z,99.99
2017-11-23T16:20:29.693Z,99.99
2017-11-23T16:21:29.676Z,99.99
2017-11-23T16:22:29.661Z,99.99
2017-11-23T16:23:29.670Z,99.99
2017-11-23T16:24:29.619Z,99.99
2017-11-23T16:25:29.601Z,99.99
2017-11-23T16:26:29.582Z,99.99
2017-11-23T16:27:29.566Z,99.99
2017-11-23T16:28:29.589Z,99.99
2017-11-23T16:29:29.528Z,99.99
2017-11-23T16:30:29.511Z,99.99
2017-11-23T16:31:29.495Z,99.99
2017-11-23T16:32:29.471Z,99.99
2017-11-23T16:33:29.487Z,99.99
2017-11-23T16:34:29.433Z,99.99
2017-11-23T16:35:29.419Z,99.99
2017-11-23T16:36:29.399Z,99.99
2017-11-23T16:37:29.376Z,99.99
2017-11-23T16:38:29.399Z,99.99
2017-11-23T16:39:29.342Z,99.99
2017-11-23T16:40:29.318Z,99.99
2017-11-23T16:41:29.301Z,99.99
2017-11-23T16:42:29.282Z,99.99
2017-11-23T16:43:29.307Z,99.99
2017-11-23T16:44:29.245Z,99.99
2017-11-23T16:45:29.228Z,99.99
2017-11-23T16:46:29.208Z,99.99
2017-11-23T16:47:29.194Z,99.99
2017-11-23T16:48:29.204Z,99.99
2017-11-23T16:49:29.204Z,99.89
2017-11-23T16:50:29.132Z,99.60
2017-11-23T16:51:29.147Z,98.65
2017-11-23T16:52:29.100Z,98.94
2017-11-23T16:53:29.072Z,99.22
2017-11-23T16:54:29.058Z,99.13
2017-11-23T16:55:29.038Z,99.13
2017-11-23T16:56:29.057Z,99.70
2017-11-23T16:57:29.005Z,98.94
2017-11-23T16:58:28.984Z,99.41
2017-11-23T16:59:29.014Z,99.22
2017-11-23T17:00:28.955Z,99.70
2017-11-23T17:01:28.925Z,99.41
2017-11-23T17:02:28.906Z,99.51
2017-11-23T17:03:28.891Z,99.51
2017-11-23T17:04:28.907Z,99.65
2017-11-23T17:05:28.853Z,99.99
2017-11-23T17:06:28.867Z,99.65
2017-11-23T17:07:28.813Z,99.94
2017-11-23T17:08:28.843Z,99.99
2017-11-23T17:09:28.777Z,99.99
2017-11-23T17:10:28.757Z,99.99
2017-11-23T17:11:28.747Z,99.99
2017-11-23T17:12:28.727Z,99.99
2017-11-23T17:13:28.753Z,99.99
2017-11-23T17:14:28.680Z,99.99
2017-11-23T17:15:28.662Z,99.99
2017-11-23T17:16:28.644Z,99.99
2017-11-23T17:17:28.628Z,99.99
2017-11-23T17:18:28.649Z,99.99
2017-11-23T17:19:28.584Z,99.99
2017-11-23T17:20:28.577Z,99.99
2017-11-23T17:21:28.550Z,99.99
2017-11-23T17:22:28.527Z,99.99
2017-11-23T17:23:28.550Z,99.99
2017-11-23T17:24:28.495Z,99.99
2017-11-23T17:25:28.470Z,99.99
2017-11-23T17:26:28.485Z,99.99
2017-11-23T17:27:28.435Z,99.99
2017-11-23T17:28:28.463Z,99.99
2017-11-23T17:29:28.393Z,99.99
2017-11-23T17:30:28.374Z,99.99
2017-11-23T17:31:28.360Z,99.94
2017-11-23T17:32:28.339Z,99.99
2017-11-23T17:33:28.355Z,99.99
2017-11-23T17:34:28.309Z,99.99
2017-11-23T17:35:28.322Z,99.99
2017-11-23T17:36:28.262Z,99.99
2017-11-23T17:37:28.245Z,99.99
2017-11-23T17:38:28.246Z,99.99
2017-11-23T17:39:28.208Z,99.99
2017-11-23T17:40:28.238Z,99.99
2017-11-23T17:41:28.173Z,99.84
2017-11-23T17:42:28.152Z,99.99
2017-11-23T17:43:28.129Z,99.99
2017-11-23T17:44:28.109Z,99.99
2017-11-23T17:45:28.123Z,99.99
2017-11-23T17:46:28.068Z,99.99
2017-11-23T17:47:28.049Z,99.84
2017-11-23T17:48:28.032Z,99.99
2017-11-23T17:49:28.058Z,99.99
2017-11-23T17:50:27.995Z,99.99
2017-11-23T17:51:27.972Z,99.99
2017-11-23T17:52:27.955Z,99.99
2017-11-23T17:53:27.974Z,99.99
2017-11-23T17:54:27.917Z,99.99
2017-11-23T17:55:27.897Z,99.99
2017-11-23T17:56:27.958Z,99.94
2017-11-23T17:57:27.905Z,99.55
2017-11-23T17:58:27.841Z,99.84
2017-11-23T17:59:27.823Z,99.37
2017-11-23T18:00:27.803Z,99.99
2017-11-23T18:01:27.792Z,99.75
2017-11-23T18:02:27.808Z,99.75
2017-11-23T18:03:27.778Z,99.65
2017-11-23T18:04:27.724Z,99.46
2017-11-23T18:05:27.706Z,99.84
2017-11-23T18:06:27.684Z,99.99
2017-11-23T18:07:27.676Z,99.84
2017-11-23T18:08:27.688Z,99.99
2017-11-23T18:09:27.677Z,99.75
2017-11-23T18:10:27.614Z,99.99
2017-11-23T18:11:27.592Z,99.99
2017-11-23T18:12:27.570Z,99.99
2017-11-23T18:13:27.552Z,99.94
2017-11-23T18:14:27.570Z,99.99
2017-11-23T18:15:27.535Z,99.99
2017-11-23T18:16:27.501Z,99.99
2017-11-23T18:17:27.474Z,99.99
2017-11-23T18:18:27.455Z,99.99
2017-11-23T18:19:27.480Z,99.99
2017-11-23T18:20:27.417Z,99.99
2017-11-23T18:21:27.397Z,99.99
2017-11-23T18:22:27.377Z,99.99
2017-11-23T18:23:27.359Z,99.99
2017-11-23T18:24:27.373Z,99.99
2017-11-23T18:25:27.324Z,99.99
2017-11-23T18:26:27.300Z,99.99
2017-11-23T18:27:27.328Z,99.99
2017-11-23T18:28:27.272Z,99.99
2017-11-23T18:29:27.244Z,99.99
2017-11-23T18:30:27.222Z,99.99
2017-11-23T18:31:27.216Z,99.99
2017-11-23T18:32:27.231Z,99.99
2017-11-23T18:33:27.170Z,99.99
2017-11-23T18:34:27.147Z,99.99
2017-11-23T18:35:27.130Z,99.99
2017-11-23T18:36:27.110Z,99.99
2017-11-23T18:37:27.131Z,99.99
2017-11-23T18:38:27.076Z,99.99
2017-11-23T18:39:27.059Z,99.99
2017-11-23T18:40:27.035Z,99.99
2017-11-23T18:41:27.017Z,99.99
2017-11-23T18:42:27.045Z,99.99
2017-11-23T18:43:26.985Z,99.99
2017-11-23T18:44:26.955Z,99.99
2017-11-23T18:45:26.938Z,99.99
2017-11-23T18:46:27.390Z,99.99
2017-11-23T18:47:27.115Z,99.99
2017-11-23T18:48:26.880Z,99.99
2017-11-23T18:49:27.708Z,99.99
2017-11-23T18:50:26.852Z,99.99
2017-11-23T18:51:26.823Z,99.99
2017-11-23T18:52:26.838Z,99.99
2017-11-23T18:53:26.781Z,99.99
2017-11-23T18:54:26.763Z,99.99
2017-11-23T18:55:26.744Z,99.99
2017-11-23T18:56:26.738Z,99.99
2017-11-23T18:57:26.752Z,99.99
2017-11-23T18:58:26.684Z,99.99
2017-11-23T18:59:26.668Z,99.99
2017-11-23T19:00:26.650Z,99.99
2017-11-23T19:01:26.627Z,99.99
2017-11-23T19:02:26.654Z,99.99
2017-11-23T19:03:26.591Z,99.99
2017-11-23T19:04:26.607Z,99.99
2017-11-23T19:05:26.553Z,99.99
2017-11-23T19:06:26.533Z,99.99
2017-11-23T19:07:26.518Z,99.99
2017-11-23T19:08:26.493Z,99.99
2017-11-23T19:09:26.520Z,99.99
2017-11-23T19:10:26.454Z,99.99
2017-11-23T19:11:26.440Z,99.99
2017-11-23T19:12:26.414Z,99.99
2017-11-23T19:13:26.402Z,99.99
2017-11-23T19:14:26.414Z,99.99
2017-11-23T19:15:26.369Z,99.99
2017-11-23T19:16:26.420Z,99.99
2017-11-23T19:17:26.490Z,99.99
2017-11-23T19:18:26.334Z,99.99
2017-11-23T19:19:26.289Z,99.99
2017-11-23T19:20:26.258Z,99.99
2017-11-23T19:21:26.240Z,99.99
2017-11-23T19:22:26.266Z,99.99
2017-11-23T19:23:26.238Z,99.99
2017-11-23T19:24:26.185Z,99.99
2017-11-23T19:25:26.163Z,99.99
2017-11-23T19:26:26.144Z,99.99
2017-11-23T19:27:26.127Z,99.99
2017-11-23T19:28:26.159Z,99.99
2017-11-23T19:29:26.100Z,99.99
2017-11-23T19:30:26.075Z,99.99
2017-11-23T19:31:26.046Z,99.99
2017-11-23T19:32:26.026Z,99.99
2017-11-23T19:33:26.047Z,99.99
2017-11-23T19:34:25.988Z,99.99
2017-11-23T19:35:25.968Z,99.99
2017-11-23T19:36:25.955Z,99.99
2017-11-23T19:37:25.935Z,99.99
2017-11-23T19:38:25.944Z,99.99
2017-11-23T19:39:25.927Z,99.99
2017-11-23T19:40:25.877Z,99.99
2017-11-23T19:41:25.852Z,99.99
2017-11-23T19:42:25.833Z,99.99
2017-11-23T19:43:25.813Z,99.99
2017-11-23T19:44:25.830Z,99.99
2017-11-23T19:45:25.769Z,99.99
2017-11-23T19:46:25.787Z,99.99
2017-11-23T19:47:25.734Z,99.99
2017-11-23T19:48:25.716Z,99.99
2017-11-23T19:49:25.729Z,99.99
2017-11-23T19:50:25.685Z,99.99
2017-11-23T19:51:25.659Z,99.99
2017-11-23T19:52:25.636Z,99.99
2017-11-23T19:53:25.652Z,99.99
2017-11-23T19:54:25.601Z,99.99
2017-11-23T19:55:25.576Z,99.99
2017-11-23T19:56:25.565Z,99.99
2017-11-23T19:57:25.542Z,99.99
2017-11-23T19:58:25.565Z,99.99
2017-11-23T19:59:25.502Z,99.99
2017-11-23T20:00:25.486Z,99.99
2017-11-23T20:01:25.457Z,99.99
2017-11-23T20:02:25.442Z,99.99
2017-11-23T20:03:25.462Z,99.99
2017-11-23T20:04:25.400Z,99.99
2017-11-23T20:05:25.381Z,99.99
2017-11-23T20:06:25.363Z,99.99
2017-11-23T20:07:25.346Z,99.99
2017-11-23T20:08:25.363Z,99.99
2017-11-23T20:09:25.300Z,99.99
2017-11-23T20:10:25.280Z,99.99
2017-11-23T20:11:25.259Z,99.99
2017-11-23T20:12:25.240Z,99.60
2017-11-23T20:13:25.265Z,99.32
2017-11-23T20:14:25.199Z,99.13
2017-11-23T20:15:25.180Z,99.22